Whitwell, Tennessee
Current Conditions -  °F | °C
As of 4:53 PM on Tuesday 21 Oct 2014 (Local Time) from KCHA Reporting Station
Few Clouds Few Clouds  
Wind Chill: 71°   Ceiling: Unl
Heat Index: 71°   Visibility: 10mi
Dew Point: 44°   Wind: 10mph
Humidity: 38%   Direction: 340°NNW
Pressure: 29.99"   Gusts: NA
Location:  35.2°N, 85.52°W
Report Text: KCHA 212153Z 34009KT 10SM FEW055 22/07 A2999 RMK AO2 SLP153 T02170067
Loading
Personal Weather Stations






























Interactive Weather Map New forecast layout! Learn more

10-Day Weather Forecast

Advertisements
Track Severe Weather on mobile